Time;durP1;ratioP1;P1;durP2;ratioP2;P2;SDS_P1;SDS_P2;PMS_P1;PMS_P2;Temp;Humidity;BMP_temperature;BMP_pressure;BME280_temperature;BME280_humidity;BME280_pressure;Samples;Min_cycle;Max_cycle;Signal;HPM_P1;HPM_P2
2022/05/03 00:00:41;;;;;;;9.67;6.80;;;6.70;99.90;;;;;;5044306;28;20036;-35
2022/05/03 00:03:22;;;;;;;7.70;6.73;;;6.70;99.90;;;;;;5044758;28;20063;-36
2022/05/03 00:06:28;;;;;;;10.15;6.40;;;6.70;99.90;;;;;;5044851;28;20041;-36
2022/05/03 00:09:03;;;;;;;10.37;6.37;;;6.70;99.90;;;;;;5041432;28;20049;-36
2022/05/03 00:11:51;;;;;;;7.70;6.27;;;6.70;99.90;;;;;;5047989;28;20404;-35
2022/05/03 00:14:26;;;;;;;7.73;6.20;;;6.70;99.90;;;;;;5042853;28;20052;-35
2022/05/03 00:16:53;;;;;;;8.03;5.43;;;6.60;99.90;;;;;;5029767;28;20508;-36
2022/05/03 00:19:19;;;;;;;8.07;7.03;;;6.60;99.90;;;;;;5045665;28;20508;-36
2022/05/03 00:21:45;;;;;;;8.50;6.27;;;6.60;99.90;;;;;;5046829;28;20044;-36
2022/05/03 00:24:11;;;;;;;8.83;6.13;;;6.60;99.90;;;;;;5047060;28;20500;-35
2022/05/03 00:26:37;;;;;;;8.37;7.27;;;6.60;99.90;;;;;;5032804;28;20550;-36
2022/05/03 00:29:04;;;;;;;8.83;7.20;;;6.60;99.90;;;;;;5041939;28;20469;-35
2022/05/03 00:31:31;;;;;;;9.17;7.03;;;6.50;99.90;;;;;;5046002;28;20061;-36
2022/05/03 00:33:57;;;;;;;8.40;6.17;;;6.50;99.90;;;;;;5047252;28;20171;-35
2022/05/03 00:36:24;;;;;;;9.50;8.03;;;6.50;99.90;;;;;;5035367;28;20045;-36
2022/05/03 00:38:51;;;;;;;9.23;7.70;;;6.50;99.90;;;;;;5046455;28;20403;-35
2022/05/03 00:41:44;;;;;;;11.57;8.60;;;6.50;99.90;;;;;;5047521;28;20064;-35
2022/05/03 00:47:20;;;;;;;9.47;7.73;;;6.40;99.90;;;;;;5030910;28;20056;-35
2022/05/03 00:50:02;;;;;;;9.77;8.40;;;6.40;99.90;;;;;;5048505;28;20041;-35
2022/05/03 00:52:30;;;;;;;11.13;8.73;;;6.40;99.90;;;;;;5044585;28;20037;-36
2022/05/03 00:55:30;;;;;;;9.80;8.80;;;6.40;99.90;;;;;;5045073;28;20053;-35
2022/05/03 00:58:29;;;;;;;12.27;9.17;;;6.30;99.90;;;;;;5026689;28;20519;-35
2022/05/03 01:01:10;;;;;;;10.37;9.20;;;6.30;99.90;;;;;;5042781;28;20500;-35
2022/05/03 01:03:45;;;;;;;14.43;9.25;;;6.30;99.90;;;;;;5046839;28;20336;-35
2022/05/03 01:06:22;;;;;;;12.70;10.07;;;6.30;99.90;;;;;;5038052;28;20396;-36
2022/05/03 01:09:11;;;;;;;10.63;9.47;;;6.30;99.90;;;;;;5024194;28;20052;-35
2022/05/03 01:11:54;;;;;;;10.20;9.10;;;6.20;99.90;;;;;;5046371;28;20053;-35
2022/05/03 01:14:44;;;;;;;9.43;8.43;;;6.20;99.90;;;;;;5045485;28;20041;-36
2022/05/03 01:17:20;;;;;;;9.47;8.43;;;6.20;99.90;;;;;;5030399;28;20451;-36
2022/05/03 01:20:07;;;;;;;11.30;8.93;;;6.20;99.90;;;;;;5051712;28;20404;-36
2022/05/03 01:23:12;;;;;;;11.87;9.33;;;6.20;99.90;;;;;;5043310;28;20090;-35
2022/05/03 01:25:45;;;;;;;8.77;7.63;;;6.20;99.90;;;;;;5044361;28;20049;-35
2022/05/03 01:28:49;;;;;;;10.07;7.43;;;6.10;99.90;;;;;;5029938;28;20261;-35
2022/05/03 01:31:16;;;;;;;9.97;7.93;;;6.00;99.90;;;;;;5045291;28;20048;-35
2022/05/03 01:33:45;;;;;;;10.03;8.47;;;6.00;99.90;;;;;;5044845;28;20053;-35
2022/05/03 01:36:15;;;;;;;8.63;7.73;;;6.00;99.90;;;;;;5037899;28;20037;-36
2022/05/03 01:39:18;;;;;;;10.63;8.53;;;6.00;99.90;;;;;;5039825;28;20056;-35
2022/05/03 01:42:06;;;;;;;12.37;9.00;;;6.00;99.90;;;;;;5045690;28;20045;-35
2022/05/03 01:44:40;;;;;;;11.80;8.87;;;6.00;99.90;;;;;;5047237;28;20098;-35
2022/05/03 01:47:24;;;;;;;11.13;9.10;;;6.00;99.90;;;;;;5034410;28;20230;-36
2022/05/03 01:50:20;;;;;;;10.40;8.77;;;6.00;99.90;;;;;;5049257;28;20045;-35
2022/05/03 01:53:05;;;;;;;10.87;8.73;;;6.00;99.90;;;;;;5048729;28;20041;-35
2022/05/03 01:55:43;;;;;;;13.47;9.80;;;5.90;99.90;;;;;;5051636;28;20049;-35
2022/05/03 01:58:44;;;;;;;12.40;9.90;;;5.90;99.90;;;;;;5032569;28;20080;-35
2022/05/03 02:01:09;;;;;;;13.03;9.37;;;5.90;99.90;;;;;;5049399;28;20463;-35
2022/05/03 02:03:51;;;;;;;13.60;9.30;;;5.90;99.90;;;;;;5049015;28;20329;-35
2022/05/03 02:06:28;;;;;;;12.05;10.40;;;5.90;99.90;;;;;;5039555;28;20159;-36
2022/05/03 02:09:05;;;;;;;13.30;11.87;;;5.90;99.90;;;;;;5045044;28;20045;-35
2022/05/03 02:12:06;;;;;;;16.73;12.10;;;5.90;99.90;;;;;;5048626;28;20131;-35
2022/05/03 02:14:52;;;;;;;14.95;11.63;;;5.90;99.90;;;;;;5025452;28;20636;-35
2022/05/03 02:17:37;;;;;;;16.50;12.17;;;5.90;99.90;;;;;;5029401;28;20045;-35
2022/05/03 02:20:14;;;;;;;19.37;13.33;;;5.90;99.90;;;;;;5048168;28;20049;-35
2022/05/03 02:23:17;;;;;;;16.50;13.10;;;5.90;99.90;;;;;;5048434;28;20045;-35
2022/05/03 02:26:16;;;;;;;18.77;14.63;;;6.00;99.90;;;;;;5048197;28;20098;-35
2022/05/03 02:28:45;;;;;;;17.73;14.50;;;5.90;99.90;;;;;;5043449;28;20053;-35
2022/05/03 02:31:23;;;;;;;18.50;15.47;;;6.00;99.90;;;;;;5048127;28;20550;-35
2022/05/03 02:34:16;;;;;;;21.00;15.63;;;6.00;99.90;;;;;;5044176;28;20139;-36
2022/05/03 02:36:59;;;;;;;20.10;15.43;;;6.20;99.90;;;;;;5033336;28;20576;-35
2022/05/03 02:39:29;;;;;;;21.03;15.57;;;6.10;99.90;;;;;;5051469;28;20053;-35
2022/05/03 02:42:00;;;;;;;20.27;16.23;;;6.20;99.90;;;;;;5048040;28;20036;-35
2022/05/03 02:44:31;;;;;;;20.63;14.00;;;6.30;99.90;;;;;;5046930;28;20530;-35
2022/05/03 02:47:03;;;;;;;19.38;16.25;;;6.30;99.90;;;;;;5032763;28;20045;-35
2022/05/03 02:49:58;;;;;;;26.13;17.97;;;6.30;99.90;;;;;;5048687;28;20053;-35
2022/05/03 02:52:30;;;;;;;22.07;17.27;;;6.40;99.90;;;;;;5048918;28;20053;-35
2022/05/03 02:55:21;;;;;;;22.60;17.70;;;6.40;99.90;;;;;;5047616;28;20049;-35
2022/05/03 02:57:52;;;;;;;22.67;16.47;;;6.40;99.90;;;;;;5031724;28;20049;-36
2022/05/03 03:03:15;;;;;;;22.23;17.40;;;6.50;99.90;;;;;;5044286;28;20098;-35
2022/05/03 03:06:14;;;;;;;21.97;15.37;;;6.50;99.90;;;;;;5049429;28;20063;-36
2022/05/03 03:08:44;;;;;;;22.70;15.90;;;6.50;99.90;;;;;;5036000;28;20072;-35
2022/05/03 03:11:22;;;;;;;20.57;15.67;;;6.60;99.90;;;;;;5048160;28;20072;-35
2022/05/03 03:13:57;;;;;;;21.10;17.40;;;6.60;99.90;;;;;;5047550;28;20067;-36
2022/05/03 03:16:31;;;;;;;21.57;16.67;;;6.60;99.90;;;;;;5035124;28;20147;-36
2022/05/03 03:19:32;;;;;;;23.87;17.47;;;6.70;99.90;;;;;;5042337;28;20072;-35
2022/05/03 03:22:00;;;;;;;24.30;18.27;;;6.70;99.90;;;;;;5044373;28;20055;-35
2022/05/03 03:24:28;;;;;;;22.90;17.10;;;6.70;99.90;;;;;;5046610;28;20487;-35
2022/05/03 03:26:55;;;;;;;24.33;18.87;;;6.80;99.90;;;;;;5031982;28;20056;-35
2022/05/03 03:29:24;;;;;;;24.47;18.53;;;6.80;99.90;;;;;;5045476;28;20128;-35
2022/05/03 03:31:50;;;;;;;21.57;17.83;;;6.80;99.90;;;;;;5047844;28;20532;-36
2022/05/03 03:34:18;;;;;;;24.37;18.47;;;6.90;99.90;;;;;;5046374;28;20136;-35
2022/05/03 03:36:47;;;;;;;24.57;19.50;;;6.90;99.90;;;;;;5032004;28;20053;-36
2022/05/03 03:39:12;;;;;;;26.33;19.47;;;6.90;99.90;;;;;;5047235;28;20103;-35
2022/05/03 03:41:38;;;;;;;27.10;19.63;;;7.10;99.90;;;;;;5047110;28;20496;-35
2022/05/03 03:44:05;;;;;;;27.33;20.50;;;7.00;99.90;;;;;;5047465;28;20126;-35
2022/05/03 03:46:32;;;;;;;28.53;21.63;;;7.00;99.90;;;;;;5033274;28;20040;-36
2022/05/03 03:48:58;;;;;;;28.43;21.77;;;7.10;99.90;;;;;;5046576;28;20041;-35
2022/05/03 03:51:25;;;;;;;32.53;23.17;;;7.10;99.90;;;;;;5048413;28;20437;-36
2022/05/03 03:53:51;;;;;;;29.20;22.53;;;7.10;99.90;;;;;;5047245;28;20044;-35
2022/05/03 03:56:17;;;;;;;28.10;23.00;;;7.10;99.90;;;;;;5036223;28;20068;-36
2022/05/03 03:58:43;;;;;;;30.83;22.50;;;7.20;99.90;;;;;;5041506;28;20158;-36
2022/05/03 04:01:09;;;;;;;27.93;21.53;;;7.20;99.90;;;;;;5046931;28;20524;-36
2022/05/03 04:03:38;;;;;;;32.87;22.53;;;7.20;99.90;;;;;;5043751;28;20037;-36
2022/05/03 04:06:04;;;;;;;29.17;22.20;;;7.30;99.90;;;;;;5047482;28;20045;-36
2022/05/03 04:08:31;;;;;;;30.37;23.40;;;7.30;99.90;;;;;;5031476;28;20071;-35
2022/05/03 04:10:57;;;;;;;26.60;20.80;;;7.20;99.90;;;;;;5046997;28;20060;-35
2022/05/03 04:13:22;;;;;;;30.03;22.07;;;7.30;99.90;;;;;;5046914;28;20317;-35
2022/05/03 04:15:51;;;;;;;31.03;23.53;;;7.40;99.90;;;;;;5044344;28;20124;-35
2022/05/03 04:18:17;;;;;;;30.90;23.40;;;7.40;99.90;;;;;;5030341;28;20573;-35
2022/05/03 04:20:43;;;;;;;32.00;23.23;;;7.40;99.90;;;;;;5048031;28;20045;-35
2022/05/03 04:23:09;;;;;;;30.93;22.27;;;7.40;99.90;;;;;;5044787;28;20404;-35
2022/05/03 04:25:36;;;;;;;29.30;21.97;;;7.50;99.90;;;;;;5046675;28;20381;-35
2022/05/03 04:28:01;;;;;;;34.77;23.63;;;7.60;99.90;;;;;;5031637;28;20063;-36
2022/05/03 04:30:27;;;;;;;32.37;23.57;;;7.50;99.90;;;;;;5046600;28;20485;-35
2022/05/03 04:32:53;;;;;;;30.00;22.83;;;7.60;99.90;;;;;;5048120;28;20058;-35
2022/05/03 04:35:19;;;;;;;29.50;23.57;;;7.60;99.90;;;;;;5050399;28;20049;-35
2022/05/03 04:37:44;;;;;;;29.30;22.13;;;7.60;99.90;;;;;;5030341;28;20041;-35
2022/05/03 04:40:11;;;;;;;28.57;21.37;;;7.60;99.90;;;;;;5046507;28;20056;-35
2022/05/03 04:42:36;;;;;;;29.23;22.47;;;7.60;99.90;;;;;;5047325;28;20068;-35
2022/05/03 04:45:02;;;;;;;33.83;24.40;;;7.60;99.90;;;;;;5045828;28;20049;-35
2022/05/03 04:47:28;;;;;;;33.10;22.90;;;7.60;99.90;;;;;;5029909;28;20102;-36
2022/05/03 04:49:53;;;;;;;34.23;24.70;;;7.70;99.90;;;;;;5046735;28;20531;-35
2022/05/03 04:52:19;;;;;;;32.57;23.90;;;7.70;99.90;;;;;;5048454;28;20037;-36
2022/05/03 04:54:45;;;;;;;32.73;23.57;;;7.70;99.90;;;;;;5046821;28;20381;-35
2022/05/03 04:57:11;;;;;;;32.77;23.77;;;7.70;99.90;;;;;;5036186;28;20059;-36
2022/05/03 04:59:38;;;;;;;36.83;24.83;;;7.80;99.90;;;;;;5040621;28;20131;-35
2022/05/03 05:02:04;;;;;;;34.00;24.03;;;7.80;99.90;;;;;;5046634;28;20048;-37
2022/05/03 05:04:30;;;;;;;32.73;24.00;;;7.80;99.90;;;;;;5027188;28;20041;-35
2022/05/03 05:06:55;;;;;;;31.80;24.70;;;7.80;99.90;;;;;;5034073;28;20116;-35
2022/05/03 05:09:21;;;;;;;32.03;25.10;;;7.90;99.90;;;;;;5045032;28;20075;-35
2022/05/03 05:11:49;;;;;;;36.93;24.97;;;7.90;99.90;;;;;;5045833;28;20053;-35
2022/05/03 05:14:14;;;;;;;34.00;24.13;;;7.90;99.90;;;;;;5043458;28;20120;-35
2022/05/03 05:16:40;;;;;;;32.00;24.23;;;7.90;99.90;;;;;;5034765;28;20143;-35
2022/05/03 05:19:06;;;;;;;36.50;26.03;;;8.00;99.90;;;;;;5046277;28;20047;-35
2022/05/03 05:21:31;;;;;;;34.30;24.90;;;8.00;99.90;;;;;;5052495;28;20499;-35
2022/05/03 05:23:57;;;;;;;32.40;24.87;;;8.00;99.90;;;;;;5048066;28;20401;-35
2022/05/03 05:26:23;;;;;;;37.83;25.70;;;8.10;99.90;;;;;;5035012;28;20059;-36
2022/05/03 05:28:48;;;;;;;35.90;25.87;;;8.10;99.90;;;;;;5042229;28;20048;-36
2022/05/03 05:31:15;;;;;;;37.17;25.97;;;8.10;99.90;;;;;;5050943;28;20508;-35
2022/05/03 05:33:40;;;;;;;39.13;27.00;;;8.10;99.90;;;;;;5046985;28;20040;-35
2022/05/03 05:36:06;;;;;;;38.50;27.27;;;8.20;99.90;;;;;;5046438;28;20474;-36
2022/05/03 05:38:32;;;;;;;40.23;27.67;;;8.20;99.90;;;;;;5037244;28;20040;-35
2022/05/03 05:40:57;;;;;;;41.13;29.67;;;8.30;99.90;;;;;;5049048;28;20061;-35
2022/05/03 05:43:23;;;;;;;40.20;27.67;;;8.30;99.90;;;;;;5049231;28;20044;-36
2022/05/03 05:45:49;;;;;;;39.57;26.90;;;8.50;99.90;;;;;;5048371;28;20102;-35
2022/05/03 05:48:15;;;;;;;39.40;27.67;;;8.40;99.90;;;;;;5035356;28;20041;-35
2022/05/03 05:50:41;;;;;;;39.87;28.13;;;8.40;99.90;;;;;;5049610;28;20069;-35
2022/05/03 05:55:52;;;;;;;43.17;28.73;;;8.50;99.90;;;;;;5049341;28;20389;-35
2022/05/03 05:58:17;;;;;;;42.07;29.57;;;8.60;99.90;;;;;;5034267;28;20075;-35
2022/05/03 06:00:43;;;;;;;43.97;29.37;;;8.60;99.90;;;;;;5049419;28;20075;-35
2022/05/03 06:03:09;;;;;;;35.37;23.37;;;8.70;99.90;;;;;;5047568;28;20538;-35
2022/05/03 06:05:34;;;;;;;33.00;12.73;;;8.70;99.90;;;;;;5048760;28;20040;-35
2022/05/03 06:08:00;;;;;;;20.03;8.53;;;9.00;99.90;;;;;;5033820;28;20115;-35
2022/05/03 06:10:28;;;;;;;21.33;7.03;;;8.80;99.90;;;;;;5048671;28;20053;-35
2022/05/03 06:12:53;;;;;;;20.00;6.23;;;8.80;99.90;;;;;;5045326;28;20415;-35
2022/05/03 06:15:19;;;;;;;16.57;5.90;;;8.80;99.90;;;;;;5048580;28;20041;-35
2022/05/03 06:17:45;;;;;;;24.67;5.93;;;8.80;99.90;;;;;;5032946;28;20055;-35
2022/05/03 06:20:12;;;;;;;21.60;6.90;;;8.90;99.90;;;;;;5047961;28;20099;-35
2022/05/03 06:22:41;;;;;;;19.50;6.00;;;8.90;99.90;;;;;;5046294;28;20652;-35
2022/05/03 06:25:11;;;;;;;15.77;6.57;;;8.90;99.90;;;;;;5047608;28;20041;-35
2022/05/03 06:27:38;;;;;;;22.83;6.00;;;8.90;99.90;;;;;;5031007;28;20120;-35
2022/05/03 06:30:05;;;;;;;20.43;5.80;;;9.00;99.90;;;;;;5047636;28;20048;-35
2022/05/03 06:32:31;;;;;;;17.00;5.67;;;8.90;99.90;;;;;;5047092;28;20037;-35
2022/05/03 06:34:57;;;;;;;16.37;5.80;;;9.00;99.90;;;;;;5047412;28;20135;-35
2022/05/03 06:37:22;;;;;;;21.87;6.40;;;9.00;99.90;;;;;;5032665;28;20044;-35
2022/05/03 06:39:48;;;;;;;17.30;6.10;;;9.00;99.90;;;;;;5048505;28;20049;-35
2022/05/03 06:42:16;;;;;;;20.93;6.60;;;9.00;99.90;;;;;;5047426;28;20048;-35
2022/05/03 06:44:42;;;;;;;18.73;6.23;;;9.00;99.90;;;;;;5056927;28;20053;-35
2022/05/03 06:47:08;;;;;;;23.63;6.73;;;9.00;99.90;;;;;;5032706;28;20040;-35
2022/05/03 06:49:34;;;;;;;19.10;6.27;;;9.10;99.90;;;;;;5047891;28;20045;-35
2022/05/03 06:51:59;;;;;;;16.50;6.07;;;9.00;99.90;;;;;;5042820;28;20432;-35
2022/05/03 06:54:25;;;;;;;19.93;6.27;;;9.20;99.90;;;;;;5049307;28;20072;-35
2022/05/03 06:56:51;;;;;;;22.70;6.13;;;9.10;99.90;;;;;;5030673;28;20088;-35
2022/05/03 06:59:17;;;;;;;23.37;7.10;;;9.10;99.90;;;;;;5044576;28;20176;-35
2022/05/03 07:01:42;;;;;;;22.77;6.93;;;9.20;99.90;;;;;;5045625;28;20041;-35
2022/05/03 07:04:08;;;;;;;17.83;6.43;;;9.20;99.90;;;;;;5040095;28;20340;-35
2022/05/03 07:06:34;;;;;;;26.20;6.43;;;9.20;99.90;;;;;;5036868;28;20095;-35
2022/05/03 07:09:00;;;;;;;22.57;7.43;;;9.30;99.90;;;;;;5044110;28;20036;-35
2022/05/03 07:11:25;;;;;;;30.77;7.30;;;9.30;99.90;;;;;;5046369;28;20064;-35
2022/05/03 07:13:51;;;;;;;21.80;6.70;;;9.20;99.90;;;;;;5045047;28;20084;-35
2022/05/03 07:16:17;;;;;;;22.17;6.97;;;9.30;99.90;;;;;;5033595;28;20407;-35
2022/05/03 07:24:11;;;;;;;25.47;6.93;;;9.40;99.90;;;;;;5041871;28;20501;-35
2022/05/03 07:26:37;;;;;;;24.30;6.17;;;9.40;99.90;;;;;;5034398;28;20036;-35
2022/05/03 07:29:04;;;;;;;28.90;6.53;;;9.50;99.90;;;;;;5043030;28;20044;-35
2022/05/03 07:31:30;;;;;;;25.00;6.23;;;9.40;99.90;;;;;;5045651;28;20045;-35
2022/05/03 07:33:56;;;;;;;26.50;6.50;;;9.50;99.90;;;;;;5043791;28;20110;-35
2022/05/03 07:36:22;;;;;;;22.33;5.77;;;9.50;99.90;;;;;;5031219;28;20095;-35
2022/05/03 07:38:48;;;;;;;19.77;4.83;;;9.50;99.90;;;;;;5043771;28;20053;-35
2022/05/03 07:41:14;;;;;;;26.70;6.07;;;9.50;99.90;;;;;;5046885;28;20037;-36
2022/05/03 07:43:41;;;;;;;24.47;5.77;;;9.60;99.90;;;;;;5047408;28;20095;-35
2022/05/03 07:46:07;;;;;;;22.60;5.57;;;9.60;99.90;;;;;;5042161;28;20029;-35
2022/05/03 07:48:33;;;;;;;23.27;5.03;;;9.60;99.90;;;;;;5039898;28;20515;-36
2022/05/03 07:50:59;;;;;;;22.77;5.70;;;9.70;99.90;;;;;;5045072;28;20083;-35
2022/05/03 07:53:25;;;;;;;19.90;5.60;;;9.70;99.90;;;;;;5044415;28;20048;-35
2022/05/03 07:55:51;;;;;;;28.33;5.70;;;9.70;99.90;;;;;;5049272;28;20441;-35
2022/05/03 07:58:19;;;;;;;19.20;5.60;;;9.80;99.90;;;;;;5034306;28;20531;-36
2022/05/03 08:00:45;;;;;;;21.30;5.47;;;9.70;99.90;;;;;;5045240;28;20506;-35
2022/05/03 08:03:13;;;;;;;18.13;5.20;;;9.80;99.90;;;;;;5038750;28;20226;-36
2022/05/03 08:05:38;;;;;;;18.40;5.10;;;9.90;99.90;;;;;;5049392;28;20609;-35
2022/05/03 08:08:04;;;;;;;20.27;5.60;;;9.90;99.90;;;;;;5031739;28;20514;-36
2022/05/03 08:10:30;;;;;;;14.80;4.60;;;10.00;99.90;;;;;;5044381;28;20037;-35
2022/05/03 08:12:56;;;;;;;19.73;5.20;;;10.00;99.90;;;;;;5045085;28;20041;-36
2022/05/03 08:15:22;;;;;;;18.93;4.80;;;10.00;99.90;;;;;;5042209;28;20112;-35
2022/05/03 08:17:48;;;;;;;14.93;4.50;;;10.10;99.90;;;;;;5005983;28;20049;-36
2022/05/03 08:20:15;;;;;;;14.37;4.23;;;10.10;99.90;;;;;;5041743;28;20033;-36
2022/05/03 08:22:41;;;;;;;18.53;5.13;;;10.10;99.90;;;;;;5038014;28;20424;-36
2022/05/03 08:25:07;;;;;;;18.07;4.60;;;10.20;99.90;;;;;;5041880;28;20444;-36
2022/05/03 08:27:36;;;;;;;15.10;4.68;;;10.20;99.90;;;;;;5027133;28;20045;-36
2022/05/03 08:30:03;;;;;;;18.17;4.50;;;10.30;99.90;;;;;;5039426;28;20044;-36
2022/05/03 08:32:29;;;;;;;22.13;4.23;;;10.20;99.90;;;;;;5035089;28;20046;-35
2022/05/03 08:34:55;;;;;;;21.77;4.60;;;10.20;99.90;;;;;;5034526;28;20056;-36
2022/05/03 08:42:50;;;;;;;21.13;4.17;;;10.30;99.90;;;;;;5040335;28;20900;-36
2022/05/03 08:45:16;;;;;;;18.37;4.27;;;10.30;99.90;;;;;;5040936;28;20044;-35
2022/05/03 08:47:42;;;;;;;16.97;3.80;;;10.40;99.90;;;;;;5010560;28;20056;-35
2022/05/03 08:50:09;;;;;;;14.50;3.92;;;10.40;99.90;;;;;;5048390;28;20083;-35
2022/05/03 08:52:54;;;;;;;17.53;3.83;;;10.40;99.90;;;;;;5048587;28;20385;-36
2022/05/03 08:55:21;;;;;;;13.93;3.17;;;10.50;99.90;;;;;;5056396;28;20103;-36
2022/05/03 08:57:47;;;;;;;11.55;3.45;;;10.60;99.90;;;;;;5035828;28;20075;-36
2022/05/03 09:00:15;;;;;;;11.05;3.35;;;10.60;99.90;;;;;;5052821;28;20431;-35
2022/05/03 09:02:49;;;;;;;13.15;3.75;;;10.70;99.90;;;;;;5049596;28;20835;-36
2022/05/03 09:05:15;;;;;;;13.17;3.50;;;10.80;99.90;;;;;;5050978;28;20168;-35
2022/05/03 09:08:09;;;;;;;11.90;3.20;;;10.80;99.90;;;;;;5033591;28;20571;-36
2022/05/03 09:10:38;;;;;;;12.57;3.53;;;10.90;99.90;;;;;;5031776;28;20495;-36
2022/05/03 09:13:20;;;;;;;13.05;3.38;;;10.90;99.90;;;;;;5046145;28;20535;-36
2022/05/03 09:15:50;;;;;;;9.90;2.72;;;10.90;99.90;;;;;;5051475;28;20130;-36
2022/05/03 09:18:22;;;;;;;10.37;2.80;;;11.00;99.90;;;;;;5035885;28;20043;-36
2022/05/03 09:23:47;;;;;;;12.65;3.03;;;11.10;99.90;;;;;;5047169;28;20048;-36
2022/05/03 09:26:14;;;;;;;;;;;11.10;99.90;;;;;;5038827;28;20486;-36
2022/05/03 09:28:48;;;;;;;9.23;2.35;;;11.20;99.90;;;;;;5042201;28;19921;-36
2022/05/03 09:31:25;;;;;;;11.98;3.42;;;11.20;99.90;;;;;;5046059;28;20073;-36
2022/05/03 09:33:51;;;;;;;12.48;2.90;;;11.30;99.90;;;;;;5047595;28;20509;-36
2022/05/03 09:36:17;;;;;;;9.88;2.60;;;11.40;99.90;;;;;;5040160;28;20040;-36
2022/05/03 09:38:54;;;;;;;10.05;2.60;;;11.50;99.90;;;;;;5048628;28;20055;-36
2022/05/03 09:41:21;;;;;;;13.27;2.80;;;11.50;99.90;;;;;;5049591;28;20171;-36
2022/05/03 09:44:07;;;;;;;12.02;2.80;;;11.60;99.90;;;;;;5051957;28;20044;-36
2022/05/03 09:46:54;;;;;;;9.85;2.28;;;11.60;99.90;;;;;;5037699;28;20124;-36
2022/05/03 09:49:21;;;;;;;16.10;2.50;;;11.70;99.90;;;;;;5046042;28;20045;-36
2022/05/03 09:51:49;;;;;;;11.65;2.45;;;11.70;99.90;;;;;;5049671;28;20045;-36
2022/05/03 09:54:16;;;;;;;9.00;2.40;;;11.80;99.90;;;;;;5046081;28;20068;-36
2022/05/03 09:56:47;;;;;;;11.43;2.67;;;11.90;99.90;;;;;;5033598;28;20048;-36
2022/05/03 09:59:14;;;;;;;9.55;2.42;;;11.90;99.90;;;;;;5047377;28;20045;-36
2022/05/03 10:01:40;;;;;;;11.13;2.78;;;12.00;99.90;;;;;;5046905;28;20435;-36
2022/05/03 10:04:06;;;;;;;12.20;2.83;;;12.00;99.90;;;;;;5044756;28;20052;-36
2022/05/03 10:06:32;;;;;;;11.77;2.55;;;12.10;99.90;;;;;;5032564;28;20556;-36
2022/05/03 10:08:59;;;;;;;8.10;2.53;;;12.10;99.90;;;;;;5045114;28;20045;-36
2022/05/03 10:11:27;;;;;;;11.90;2.60;;;12.20;99.90;;;;;;5049664;28;20043;-36
2022/05/03 10:13:53;;;;;;;12.60;2.20;;;12.30;99.90;;;;;;5045142;28;20071;-37
2022/05/03 10:21:57;;;;;;;10.32;2.30;;;12.40;99.90;;;;;;5050310;28;20139;-36
2022/05/03 10:24:24;;;;;;;7.97;2.13;;;12.50;99.90;;;;;;5056223;28;20043;-36
2022/05/03 10:26:56;;;;;;;10.40;2.40;;;12.60;99.90;;;;;;5037717;28;20075;-36
2022/05/03 10:29:23;;;;;;;9.85;2.40;;;12.60;99.90;;;;;;5044804;28;20091;-36
2022/05/03 10:32:03;;;;;;;11.38;2.10;;;12.60;99.90;;;;;;5056150;28;20061;-36
2022/05/03 10:34:51;;;;;;;9.05;2.22;;;12.60;99.90;;;;;;5051088;28;20060;-36
2022/05/03 10:37:18;;;;;;;7.47;2.03;;;12.60;99.90;;;;;;5034962;28;20410;-36
2022/05/03 10:39:47;;;;;;;8.15;2.00;;;12.70;99.90;;;;;;5045959;28;20084;-36
2022/05/03 10:42:15;;;;;;;8.95;2.33;;;12.70;99.90;;;;;;5049334;28;20056;-36
2022/05/03 10:44:41;;;;;;;6.35;1.70;;;12.80;99.90;;;;;;5045378;28;20131;-36
2022/05/03 10:47:07;;;;;;;7.53;2.00;;;12.80;99.90;;;;;;5030823;28;20348;-36
2022/05/03 10:49:33;;;;;;;7.32;1.80;;;12.80;99.90;;;;;;5045709;28;20045;-36
2022/05/03 10:51:59;;;;;;;9.40;1.92;;;12.80;99.90;;;;;;5046787;28;20048;-36
2022/05/03 10:54:24;;;;;;;8.00;1.70;;;12.80;99.90;;;;;;5040927;28;20049;-36
2022/05/03 10:57:09;;;;;;;10.48;2.15;;;12.80;99.90;;;;;;5031503;28;20135;-36
2022/05/03 10:59:46;;;;;;;7.97;2.03;;;12.90;99.90;;;;;;5044343;28;20047;-37
2022/05/03 11:02:12;;;;;;;11.32;1.98;;;12.90;99.90;;;;;;5045277;28;20281;-37
2022/05/03 11:05:16;;;;;;;9.93;1.90;;;12.90;99.90;;;;;;5045385;28;20044;-37
2022/05/03 11:08:16;;;;;;;6.90;1.92;;;13.00;99.90;;;;;;5028875;28;20099;-36
2022/05/03 11:10:43;;;;;;;7.13;1.85;;;13.00;99.90;;;;;;5044625;28;20045;-37
2022/05/03 11:13:35;;;;;;;9.23;1.98;;;13.00;99.90;;;;;;5043545;28;20049;-36
2022/05/03 11:16:23;;;;;;;6.05;1.75;;;13.00;99.90;;;;;;5047740;28;20155;-36
2022/05/03 11:18:50;;;;;;;6.68;1.80;;;13.00;99.90;;;;;;5040918;28;20068;-37
2022/05/03 11:21:16;;;;;;;9.27;2.08;;;13.10;99.90;;;;;;5045331;28;20036;-37
2022/05/03 11:23:53;;;;;;;7.35;1.80;;;13.10;99.90;;;;;;5044226;28;20412;-37
2022/05/03 11:26:20;;;;;;;8.00;1.90;;;13.10;99.90;;;;;;5033409;28;20053;-37
2022/05/03 11:28:50;;;;;;;6.15;1.80;;;13.10;99.90;;;;;;5040658;28;20040;-36
2022/05/03 11:31:20;;;;;;;6.88;1.92;;;13.10;99.90;;;;;;5043605;28;20049;-36
2022/05/03 11:33:54;;;;;;;6.88;1.88;;;13.20;99.90;;;;;;5044451;28;20052;-36
2022/05/03 11:36:20;;;;;;;6.85;1.85;;;13.20;99.90;;;;;;5031460;28;20060;-37
2022/05/03 11:38:54;;;;;;;7.30;1.88;;;13.30;99.90;;;;;;5041212;28;20454;-37
2022/05/03 11:41:24;;;;;;;9.07;2.03;;;13.30;99.90;;;;;;5046307;28;20056;-36
2022/05/03 11:43:50;;;;;;;6.93;2.17;;;13.30;99.90;;;;;;5043541;28;20098;-37
2022/05/03 11:46:17;;;;;;;9.30;1.73;;;13.40;99.90;;;;;;5035088;28;20045;-38
2022/05/03 11:48:44;;;;;;;7.97;1.88;;;13.40;99.90;;;;;;5043297;28;20095;-37
2022/05/03 11:56:44;;;;;;;6.25;2.10;;;13.40;99.90;;;;;;5036547;28;20072;-36
2022/05/03 11:59:10;;;;;;;6.82;1.95;;;13.50;99.90;;;;;;5044851;28;20103;-37
2022/05/03 12:01:36;;;;;;;9.55;1.95;;;13.40;99.90;;;;;;5042308;28;20045;-37
2022/05/03 12:04:03;;;;;;;8.60;2.08;;;13.40;99.90;;;;;;5043929;28;20041;-37
2022/05/03 12:06:48;;;;;;;11.38;2.20;;;13.60;99.90;;;;;;5031299;28;20136;-37
2022/05/03 12:09:18;;;;;;;6.55;1.73;;;13.50;99.90;;;;;;5040500;28;20102;-37
2022/05/03 12:14:42;;;;;;;5.82;1.73;;;13.50;99.90;;;;;;5042657;28;20049;-36
2022/05/03 12:17:08;;;;;;;10.52;2.00;;;13.50;99.90;;;;;;5025403;28;20040;-36
2022/05/03 12:19:35;;;;;;;8.95;2.17;;;13.50;99.90;;;;;;5045799;28;20044;-37
2022/05/03 12:22:15;;;;;;;7.80;1.92;;;13.50;99.90;;;;;;5043792;28;20045;-37
2022/05/03 12:24:47;;;;;;;7.53;1.80;;;13.50;99.90;;;;;;5042702;28;20087;-36
2022/05/03 12:27:15;;;;;;;7.57;1.92;;;13.50;99.90;;;;;;5027550;28;20044;-36
2022/05/03 12:29:48;;;;;;;9.43;1.85;;;13.50;99.90;;;;;;5044210;28;20500;-36
2022/05/03 12:32:18;;;;;;;9.80;2.13;;;13.50;99.90;;;;;;5041089;28;20061;-37
2022/05/03 12:35:01;;;;;;;7.53;2.33;;;13.50;99.90;;;;;;5048087;28;20043;-37
2022/05/03 12:37:27;;;;;;;10.27;2.03;;;13.40;99.90;;;;;;5029658;28;20496;-37
2022/05/03 12:40:00;;;;;;;9.70;2.28;;;13.50;99.90;;;;;;5044270;28;20095;-37
2022/05/03 12:42:25;;;;;;;8.00;2.05;;;13.60;99.90;;;;;;5044195;28;20389;-37
2022/05/03 12:44:59;;;;;;;10.82;2.13;;;13.60;99.90;;;;;;5042638;28;20079;-36
2022/05/03 12:47:26;;;;;;;7.53;2.10;;;13.60;99.90;;;;;;5028374;28;20052;-36
2022/05/03 12:49:52;;;;;;;7.35;2.17;;;13.60;99.90;;;;;;5042841;28;20067;-36
2022/05/03 12:52:18;;;;;;;9.85;2.45;;;13.70;99.90;;;;;;5043795;28;20379;-37
2022/05/03 12:54:48;;;;;;;11.13;2.55;;;13.60;99.90;;;;;;5045901;28;20123;-37
2022/05/03 12:59:58;;;;;;;8.63;2.42;;;13.70;99.90;;;;;;5041646;28;20052;-37
2022/05/03 13:02:25;;;;;;;6.78;2.10;;;13.80;99.90;;;;;;5041317;28;20045;-37
2022/05/03 13:04:51;;;;;;;7.72;1.90;;;13.90;99.90;;;;;;5040195;28;20049;-36
2022/05/03 13:07:18;;;;;;;8.52;2.17;;;13.90;99.90;;;;;;5022538;28;20508;-36
2022/05/03 13:09:44;;;;;;;6.75;1.85;;;14.00;99.90;;;;;;5041329;28;20124;-37
2022/05/03 13:12:10;;;;;;;7.72;1.90;;;14.00;99.90;;;;;;5041407;28;20408;-36
2022/05/03 13:14:37;;;;;;;10.55;2.35;;;14.10;99.90;;;;;;5041065;28;20094;-37
2022/05/03 13:17:03;;;;;;;8.73;2.30;;;14.10;99.90;;;;;;5025560;28;20047;-37
2022/05/03 13:19:30;;;;;;;13.05;2.45;;;14.20;99.90;;;;;;5041037;28;20068;-37
2022/05/03 13:21:59;;;;;;;7.13;2.00;;;14.20;99.90;;;;;;5042418;28;20515;-37
2022/05/03 13:24:25;;;;;;;12.10;2.22;;;14.20;99.90;;;;;;5039188;28;21826;-37
2022/05/03 13:26:51;;;;;;;8.80;2.40;;;14.30;99.90;;;;;;5026432;28;20581;-37
2022/05/03 13:29:19;;;;;;;9.50;1.95;;;14.30;99.90;;;;;;5039974;28;20049;-36
2022/05/03 13:31:45;;;;;;;7.15;2.08;;;14.30;99.90;;;;;;5042064;28;20057;-37
2022/05/03 13:34:11;;;;;;;10.65;2.20;;;14.30;99.90;;;;;;5038952;28;20029;-36
2022/05/03 13:42:07;;;;;;;10.13;2.08;;;14.60;99.90;;;;;;5046009;28;20056;-37
2022/05/03 13:44:34;;;;;;;10.95;2.42;;;14.60;99.90;;;;;;5040935;28;20569;-36
2022/05/03 13:47:01;;;;;;;6.93;1.90;;;14.60;99.90;;;;;;5027742;28;20045;-37